createdAt,value
2022-08-05T00:00:46.615Z,101707.28
2022-08-05T00:03:16.600Z,101722.53
2022-08-05T00:06:04.859Z,101724.97
2022-08-05T00:08:35.244Z,101728.91
2022-08-05T00:11:04.261Z,101732.41
2022-08-05T00:13:38.238Z,101735.69
2022-08-05T00:16:08.893Z,101740.22
2022-08-05T00:18:37.972Z,101737.38
2022-08-05T00:21:06.508Z,101733.88
2022-08-05T00:23:45.814Z,101726.31
2022-08-05T00:26:20.470Z,101717.94
2022-08-05T00:28:46.981Z,101713.19
2022-08-05T00:31:15.976Z,101719.69
2022-08-05T00:34:55.263Z,101726.19
2022-08-05T00:37:10.631Z,101720.97
2022-08-05T00:39:15.636Z,101706.06
2022-08-05T00:41:51.663Z,101706.88
2022-08-05T00:44:18.950Z,101720.69
2022-08-05T00:46:47.459Z,101719.31
2022-08-05T00:49:20.959Z,101728.72
2022-08-05T00:51:50.775Z,101711.28
2022-08-05T00:54:18.955Z,101708.91
2022-08-05T00:56:51.312Z,101714.59
2022-08-05T00:59:18.459Z,101722.63
2022-08-05T01:01:48.710Z,101730.88
2022-08-05T01:04:15.691Z,101733.41
2022-08-05T01:06:43.690Z,101718.41
2022-08-05T01:09:13.175Z,101712.03
2022-08-05T01:11:41.522Z,101719.22
2022-08-05T01:14:28.267Z,101722.94
2022-08-05T01:17:27.395Z,101725.03
2022-08-05T01:20:09.287Z,101723.63
2022-08-05T01:22:35.630Z,101727.56
2022-08-05T01:25:20.954Z,101729.00
2022-08-05T01:28:15.602Z,101735.88
2022-08-05T01:30:55.256Z,101731.56
2022-08-05T01:33:26.479Z,101735.06
2022-08-05T01:35:55.638Z,101729.34
2022-08-05T01:38:27.357Z,101738.97
2022-08-05T01:40:58.796Z,101732.44
2022-08-05T01:43:27.864Z,101733.94
2022-08-05T01:45:56.566Z,101740.66
2022-08-05T01:48:29.388Z,101751.97
2022-08-05T01:50:57.624Z,101753.69
2022-08-05T01:53:55.235Z,101754.91
2022-08-05T01:58:13.576Z,101761.06
2022-08-05T01:59:08.211Z,101756.16
2022-08-05T02:01:39.839Z,101751.75
2022-08-05T02:04:10.360Z,101738.41
2022-08-05T02:06:38.945Z,101747.09
2022-08-05T02:09:07.301Z,101742.66
2022-08-05T02:12:02.876Z,101746.16
2022-08-05T02:14:40.023Z,101744.06
2022-08-05T02:18:28.686Z,101736.84
2022-08-05T02:20:10.142Z,101737.53
2022-08-05T02:22:41.816Z,101739.84
2022-08-05T02:25:14.369Z,101755.50
2022-08-05T02:27:59.237Z,101748.16
2022-08-05T02:30:35.247Z,101746.28
2022-08-05T02:33:02.662Z,101744.81
2022-08-05T02:35:37.763Z,101737.03
2022-08-05T02:38:13.279Z,101737.63
2022-08-05T02:40:46.896Z,101734.75
2022-08-05T02:43:15.436Z,101733.00
2022-08-05T02:45:51.466Z,101730.78
2022-08-05T02:48:29.455Z,101723.69
2022-08-05T02:50:59.709Z,101735.19
2022-08-05T02:53:27.767Z,101730.22
2022-08-05T02:56:00.326Z,101728.34
2022-08-05T02:58:30.287Z,101727.53
2022-08-05T03:01:01.813Z,101731.09
2022-08-05T03:03:33.818Z,101726.75
2022-08-05T03:06:55.285Z,101719.47
2022-08-05T03:09:05.138Z,101719.09
2022-08-05T03:11:54.769Z,101726.00
2022-08-05T03:14:20.893Z,101728.38
2022-08-05T03:16:47.651Z,101731.16
2022-08-05T03:19:17.373Z,101734.81
2022-08-05T03:22:00.160Z,101748.84
2022-08-05T03:24:30.425Z,101741.28
2022-08-05T03:26:59.044Z,101741.50
2022-08-05T03:29:45.721Z,101735.34
2022-08-05T03:32:14.377Z,101731.66
2022-08-05T03:34:42.013Z,101728.97
2022-08-05T03:37:08.551Z,101726.00
2022-08-05T03:39:57.684Z,101733.47
2022-08-05T03:42:24.028Z,101733.34
2022-08-05T03:44:53.769Z,101730.28
2022-08-05T03:47:20.366Z,101730.59
2022-08-05T03:49:51.980Z,101733.84
2022-08-05T03:52:37.321Z,101734.44
2022-08-05T03:56:05.685Z,101738.44
2022-08-05T03:58:11.062Z,101746.47
2022-08-05T04:00:41.985Z,101751.97
2022-08-05T04:03:14.916Z,101746.84
2022-08-05T04:05:56.160Z,101744.63
2022-08-05T04:08:34.918Z,101752.84
2022-08-05T04:11:05.987Z,101744.47
2022-08-05T04:13:49.850Z,101738.91
2022-08-05T04:16:25.020Z,101745.88
2022-08-05T04:18:54.115Z,101737.50
2022-08-05T04:22:09.008Z,101745.50
2022-08-05T04:24:08.938Z,101743.13
2022-08-05T04:26:40.850Z,101749.34
2022-08-05T04:29:07.628Z,101746.44
2022-08-05T04:31:38.569Z,101746.44
2022-08-05T04:34:31.175Z,101749.78
2022-08-05T04:36:53.043Z,101749.19
2022-08-05T04:39:20.247Z,101750.81
2022-08-05T04:41:48.061Z,101750.44
2022-08-05T04:44:14.999Z,101752.50
2022-08-05T04:46:47.672Z,101750.88
2022-08-05T04:49:15.349Z,101740.22
2022-08-05T04:51:44.028Z,101748.09
2022-08-05T04:54:12.019Z,101748.25
2022-08-05T04:56:39.209Z,101746.59
2022-08-05T04:59:21.722Z,101751.69
2022-08-05T05:02:35.457Z,101749.03
2022-08-05T05:04:38.498Z,101747.16
2022-08-05T05:07:11.623Z,101754.97
2022-08-05T05:09:42.328Z,101760.91
2022-08-05T05:12:10.968Z,101756.41
2022-08-05T05:14:38.229Z,101757.66
2022-08-05T05:17:22.741Z,101756.22
2022-08-05T05:19:53.257Z,101761.94
2022-08-05T05:22:23.469Z,101764.13
2022-08-05T05:24:57.593Z,101764.63
2022-08-05T05:27:44.776Z,101768.50
2022-08-05T05:30:29.866Z,101775.25
2022-08-05T05:33:00.622Z,101768.81
2022-08-05T05:35:34.274Z,101768.13
2022-08-05T05:38:09.419Z,101765.41
2022-08-05T05:40:48.249Z,101767.84
2022-08-05T05:43:22.270Z,101766.66
2022-08-05T05:46:05.210Z,101767.09
2022-08-05T05:48:34.451Z,101770.97
2022-08-05T05:51:14.797Z,101771.78
2022-08-05T05:53:45.948Z,101770.38
2022-08-05T05:56:26.080Z,101774.75
2022-08-05T05:59:03.437Z,101770.41
2022-08-05T06:01:37.552Z,101777.28
2022-08-05T06:04:12.196Z,101774.72
2022-08-05T06:06:47.339Z,101779.50
2022-08-05T06:09:17.729Z,101786.16
2022-08-05T06:11:59.725Z,101786.75
2022-08-05T06:14:30.756Z,101781.31
2022-08-05T06:16:57.895Z,101788.66
2022-08-05T06:19:26.129Z,101787.97
2022-08-05T06:22:06.631Z,101784.69
2022-08-05T06:24:34.840Z,101787.81
2022-08-05T06:27:04.013Z,101791.97
2022-08-05T06:29:52.033Z,101796.78
2022-08-05T06:32:24.921Z,101796.44
2022-08-05T06:34:54.066Z,101797.50
2022-08-05T06:37:56.082Z,101797.59
2022-08-05T06:40:10.116Z,101794.38
2022-08-05T06:42:37.356Z,101799.81
2022-08-05T06:45:08.923Z,101794.00
2022-08-05T06:48:36.208Z,101794.72
2022-08-05T06:50:23.599Z,101796.22
2022-08-05T06:52:58.642Z,101799.81
2022-08-05T06:55:36.383Z,101806.59
2022-08-05T06:58:20.581Z,101809.63
2022-08-05T07:00:51.167Z,101816.84
2022-08-05T07:03:17.834Z,101813.81
2022-08-05T07:05:46.202Z,101825.19
2022-08-05T07:08:13.268Z,101831.34
2022-08-05T07:10:53.327Z,101829.72
2022-08-05T07:13:57.688Z,101832.63
2022-08-05T07:17:59.876Z,101834.16
2022-08-05T07:20:10.580Z,101841.28
2022-08-05T07:22:17.610Z,101842.91
2022-08-05T07:24:52.715Z,101857.41
2022-08-05T07:27:20.250Z,101863.84
2022-08-05T07:30:22.045Z,101861.09
2022-08-05T07:32:38.503Z,101857.59
2022-08-05T07:35:56.065Z,101864.97
2022-08-05T07:37:59.096Z,101859.72
2022-08-05T07:40:32.205Z,101864.06
2022-08-05T07:42:59.284Z,101867.94
2022-08-05T07:45:57.468Z,101868.75
2022-08-05T07:49:00.985Z,101867.56
2022-08-05T07:51:22.991Z,101870.03
2022-08-05T07:53:51.680Z,101872.72
2022-08-05T07:57:00.033Z,101877.50
2022-08-05T07:59:04.816Z,101873.41
2022-08-05T08:01:35.373Z,101880.41
2022-08-05T08:04:08.108Z,101881.94
2022-08-05T08:06:34.692Z,101884.41
2022-08-05T08:09:01.179Z,101887.53
2022-08-05T08:11:47.810Z,101890.94
2022-08-05T08:14:18.219Z,101886.72
2022-08-05T08:16:51.029Z,101886.13
2022-08-05T08:20:10.437Z,101890.38
2022-08-05T08:22:05.106Z,101895.59
2022-08-05T08:24:45.992Z,101895.59
2022-08-05T08:27:18.918Z,101893.50
2022-08-05T08:30:06.088Z,101900.94
2022-08-05T08:32:34.715Z,101894.97
2022-08-05T08:35:07.564Z,101901.25
2022-08-05T08:37:40.372Z,101905.56
2022-08-05T08:40:12.360Z,101908.38
2022-08-05T08:42:50.671Z,101919.19
2022-08-05T08:45:26.637Z,101922.69
2022-08-05T08:48:12.938Z,101921.66
2022-08-05T08:51:03.389Z,101923.41
2022-08-05T08:53:40.211Z,101926.50
2022-08-05T08:56:10.993Z,101937.88
2022-08-05T08:58:44.563Z,101932.84
2022-08-05T09:01:15.746Z,101927.72
2022-08-05T09:03:54.316Z,101939.47
2022-08-05T09:06:24.227Z,101936.66
2022-08-05T09:08:58.591Z,101939.59
2022-08-05T09:11:50.806Z,101949.28
2022-08-05T09:14:56.768Z,101950.63
2022-08-05T09:17:04.651Z,101941.28
2022-08-05T09:19:36.665Z,101947.91
2022-08-05T09:22:31.810Z,101946.53
2022-08-05T09:25:13.824Z,101949.53
2022-08-05T09:28:04.420Z,101954.63
2022-08-05T09:30:34.694Z,101960.28
2022-08-05T09:33:02.365Z,101956.59
2022-08-05T09:35:29.480Z,101960.69
2022-08-05T09:38:17.267Z,101964.03
2022-08-05T09:40:52.545Z,101972.03
2022-08-05T09:43:40.604Z,101982.09
2022-08-05T09:46:33.075Z,101993.09
2022-08-05T09:49:19.012Z,101985.25
2022-08-05T09:51:48.751Z,101993.91
2022-08-05T09:54:29.102Z,102001.88
2022-08-05T09:56:57.560Z,101993.44
2022-08-05T09:59:28.057Z,102003.59
2022-08-05T10:01:57.922Z,102000.53
2022-08-05T10:04:35.280Z,102009.91
2022-08-05T10:07:19.632Z,102017.31
2022-08-05T10:10:00.303Z,102016.25
2022-08-05T10:12:49.212Z,102013.13
2022-08-05T10:15:20.195Z,102018.84
2022-08-05T10:18:09.817Z,102016.06
2022-08-05T10:20:59.454Z,102007.59
2022-08-05T10:23:59.924Z,102010.28
2022-08-05T10:26:52.405Z,102017.00
2022-08-05T10:29:11.397Z,102027.94
2022-08-05T10:32:52.338Z,102019.97
2022-08-05T10:34:31.102Z,102025.50
2022-08-05T10:36:58.360Z,102018.03
2022-08-05T10:40:03.157Z,102029.78
2022-08-05T10:42:33.789Z,102024.41
2022-08-05T10:45:01.933Z,102030.97
2022-08-05T10:48:30.384Z,102042.81
2022-08-05T10:51:04.797Z,102035.00
2022-08-05T10:53:51.998Z,102036.63
2022-08-05T10:56:26.147Z,102034.16
2022-08-05T10:58:55.682Z,102035.97
2022-08-05T11:01:54.929Z,102033.25
2022-08-05T11:04:28.267Z,102049.44
2022-08-05T11:07:01.374Z,102053.84
2022-08-05T11:09:46.079Z,102053.25
2022-08-05T11:12:37.226Z,102056.31
2022-08-05T11:15:19.113Z,102066.91
2022-08-05T11:17:57.883Z,102072.69
2022-08-05T11:20:43.632Z,102070.72
2022-08-05T11:24:04.963Z,102076.34
2022-08-05T11:26:33.053Z,102070.25
2022-08-05T11:29:12.027Z,102071.53
2022-08-05T11:31:57.608Z,102081.00
2022-08-05T11:34:38.616Z,102091.53
2022-08-05T11:37:06.253Z,102085.75
2022-08-05T11:40:00.456Z,102097.19
2022-08-05T11:42:37.754Z,102098.63
2022-08-05T11:45:27.037Z,102101.34
2022-08-05T11:47:57.937Z,102102.75
2022-08-05T11:50:25.814Z,102108.00
2022-08-05T11:52:57.701Z,102118.91
2022-08-05T11:55:31.812Z,102117.13
2022-08-05T11:58:09.648Z,102123.31
2022-08-05T12:00:39.019Z,102117.97
2022-08-05T12:03:28.529Z,102113.69
2022-08-05T12:06:02.846Z,102131.25
2022-08-05T12:08:31.659Z,102140.34
2022-08-05T12:11:05.803Z,102140.31
2022-08-05T12:13:48.872Z,102145.72
2022-08-05T12:16:18.993Z,102144.31
2022-08-05T12:18:49.331Z,102143.50
2022-08-05T12:21:26.792Z,102142.09
2022-08-05T12:24:03.354Z,102155.69
2022-08-05T12:26:43.863Z,102157.56
2022-08-05T12:29:16.426Z,102157.34
2022-08-05T12:31:50.132Z,102162.38
2022-08-05T12:34:26.669Z,102164.97
2022-08-05T12:36:54.507Z,102169.16
2022-08-05T12:39:23.692Z,102169.31
2022-08-05T12:42:00.854Z,102177.50
2022-08-05T12:44:33.333Z,102186.47
2022-08-05T12:47:02.142Z,102183.94
2022-08-05T12:50:03.869Z,102186.63
2022-08-05T12:52:41.668Z,102185.97
2022-08-05T12:55:23.236Z,102189.13
2022-08-05T12:58:48.494Z,102200.22
2022-08-05T13:02:03.462Z,102193.78
2022-08-05T13:03:32.381Z,102197.09
2022-08-05T13:05:59.892Z,102202.16
2022-08-05T13:08:32.138Z,102201.41
2022-08-05T13:11:01.967Z,102195.88
2022-08-05T13:14:06.170Z,102203.16
2022-08-05T13:16:17.155Z,102198.38
2022-08-05T13:18:59.420Z,102204.22
2022-08-05T13:21:27.882Z,102206.06
2022-08-05T13:24:04.860Z,102204.81
2022-08-05T13:26:31.386Z,102207.19
2022-08-05T13:28:59.313Z,102208.59
2022-08-05T13:32:02.943Z,102210.03
2022-08-05T13:34:22.766Z,102207.47
2022-08-05T13:36:50.311Z,102212.47
2022-08-05T13:40:13.959Z,102217.41
2022-08-05T13:42:04.901Z,102217.22
2022-08-05T13:44:32.679Z,102226.00
2022-08-05T13:47:04.867Z,102231.94
2022-08-05T13:49:35.899Z,102229.84
2022-08-05T13:52:29.112Z,102237.06
2022-08-05T13:54:56.969Z,102233.22
2022-08-05T13:57:26.173Z,102232.91
2022-08-05T14:00:13.122Z,102239.38
2022-08-05T14:02:39.697Z,102239.06
2022-08-05T14:05:15.272Z,102239.69
2022-08-05T14:08:00.875Z,102238.84
2022-08-05T14:10:32.440Z,102247.66
2022-08-05T14:12:59.359Z,102244.69
2022-08-05T14:16:07.886Z,102252.56
2022-08-05T14:18:17.370Z,102253.34
2022-08-05T14:20:47.729Z,102253.25
2022-08-05T14:23:23.813Z,102255.97
2022-08-05T14:25:54.548Z,102263.50
2022-08-05T14:28:29.463Z,102265.22
2022-08-05T14:31:00.603Z,102264.97
2022-08-05T14:33:57.013Z,102273.16
2022-08-05T14:36:21.387Z,102265.38
2022-08-05T14:38:48.415Z,102265.63
2022-08-05T14:41:18.718Z,102268.16
2022-08-05T14:44:02.718Z,102267.69
2022-08-05T14:46:32.732Z,102267.81
2022-08-05T14:49:06.906Z,102279.81
2022-08-05T14:51:38.032Z,102275.25
2022-08-05T14:54:27.842Z,102271.09
2022-08-05T14:56:54.604Z,102279.78
2022-08-05T14:59:21.818Z,102280.94
2022-08-05T15:01:49.724Z,102285.25
2022-08-05T15:04:20.644Z,102292.34
2022-08-05T15:06:50.282Z,102290.19
2022-08-05T15:09:51.039Z,102295.19
2022-08-05T15:12:08.870Z,102290.34
2022-08-05T15:14:48.144Z,102286.06
2022-08-05T15:17:47.231Z,102289.16
2022-08-05T15:20:04.206Z,102289.53
2022-08-05T15:22:30.667Z,102296.22
2022-08-05T15:24:59.201Z,102300.69
2022-08-05T15:27:32.011Z,102307.25
2022-08-05T15:30:03.764Z,102297.56
2022-08-05T15:32:30.333Z,102309.03
2022-08-05T15:34:58.254Z,102306.28
2022-08-05T15:38:31.961Z,102320.09
2022-08-05T15:40:59.707Z,102302.66
2022-08-05T15:43:09.208Z,102316.09
2022-08-05T15:45:43.895Z,102312.59
2022-08-05T15:48:13.956Z,102310.25
2022-08-05T15:50:41.212Z,102309.00
2022-08-05T15:53:12.778Z,102307.84
2022-08-05T15:56:02.706Z,102314.84
2022-08-05T15:58:28.210Z,102313.09
2022-08-05T16:01:11.660Z,102315.28
2022-08-05T16:03:42.317Z,102308.63
2022-08-05T16:06:11.205Z,102315.06
2022-08-05T16:08:38.627Z,102314.22
2022-08-05T16:11:07.123Z,102319.38
2022-08-05T16:13:35.163Z,102322.56
2022-08-05T16:16:03.608Z,102325.59
2022-08-05T16:18:30.998Z,102322.63
2022-08-05T16:20:58.597Z,102325.59
2022-08-05T16:23:29.192Z,102320.91
2022-08-05T16:26:15.690Z,102319.63
2022-08-05T16:28:43.332Z,102339.16
2022-08-05T16:31:10.511Z,102329.81
2022-08-05T16:33:41.505Z,102332.38
2022-08-05T16:36:09.092Z,102349.56
2022-08-05T16:38:35.762Z,102352.44
2022-08-05T16:42:12.118Z,102355.75
2022-08-05T16:43:49.328Z,102365.75
2022-08-05T16:46:24.829Z,102367.53
2022-08-05T16:48:51.870Z,102360.41
2022-08-05T16:51:19.241Z,102361.03
2022-08-05T16:54:05.650Z,102363.94
2022-08-05T16:56:38.128Z,102372.56
2022-08-05T16:59:11.901Z,102370.88
2022-08-05T17:01:53.727Z,102379.81
2022-08-05T17:04:23.812Z,102374.94
2022-08-05T17:06:53.662Z,102376.59
2022-08-05T17:09:20.586Z,102376.13
2022-08-05T17:11:55.987Z,102375.03
2022-08-05T17:14:36.851Z,102377.19
2022-08-05T17:17:05.766Z,102385.59
2022-08-05T17:19:32.276Z,102378.81
2022-08-05T17:22:00.627Z,102389.16
2022-08-05T17:24:35.226Z,102397.91
2022-08-05T17:27:07.473Z,102393.16
2022-08-05T17:29:41.113Z,102394.28
2022-08-05T17:32:11.637Z,102390.69
2022-08-05T17:34:47.647Z,102394.03
2022-08-05T17:37:40.241Z,102401.31
2022-08-05T17:40:10.000Z,102400.78
2022-08-05T17:42:41.557Z,102410.94
2022-08-05T17:45:20.782Z,102406.44
2022-08-05T17:47:53.429Z,102416.41
2022-08-05T17:50:28.558Z,102420.09
2022-08-05T17:52:58.935Z,102424.25
2022-08-05T17:55:34.363Z,102431.66
2022-08-05T17:58:12.913Z,102434.34
2022-08-05T18:00:47.634Z,102437.66
2022-08-05T18:03:59.622Z,102441.59
2022-08-05T18:06:11.974Z,102437.13
2022-08-05T18:08:44.800Z,102439.41
2022-08-05T18:11:24.349Z,102440.88
2022-08-05T18:14:06.804Z,102448.75
2022-08-05T18:16:35.200Z,102447.94
2022-08-05T18:19:18.187Z,102446.09
2022-08-05T18:22:09.470Z,102449.34
2022-08-05T18:24:36.189Z,102460.69
2022-08-05T18:27:02.699Z,102461.50
2022-08-05T18:29:40.512Z,102461.72
2022-08-05T18:32:13.086Z,102468.72
2022-08-05T18:34:40.696Z,102467.28
2022-08-05T18:37:08.402Z,102470.34
2022-08-05T18:40:31.051Z,102470.78
2022-08-05T18:42:26.216Z,102477.56
2022-08-05T18:44:56.540Z,102478.63
2022-08-05T18:47:26.344Z,102479.66
2022-08-05T18:50:12.083Z,102476.41
2022-08-05T18:52:41.813Z,102482.97
2022-08-05T18:55:18.594Z,102489.13
2022-08-05T18:57:52.607Z,102490.97
2022-08-05T19:00:29.193Z,102492.03
2022-08-05T19:02:56.907Z,102494.69
2022-08-05T19:06:13.612Z,102498.78
2022-08-05T19:08:12.196Z,102502.88
2022-08-05T19:10:40.745Z,102506.94
2022-08-05T19:13:07.425Z,102503.66
2022-08-05T19:15:57.538Z,102507.09
2022-08-05T19:18:26.068Z,102509.72
2022-08-05T19:20:56.559Z,102516.06
2022-08-05T19:24:07.389Z,102517.50
2022-08-05T19:26:13.875Z,102519.72
2022-08-05T19:28:42.237Z,102526.06
2022-08-05T19:31:17.765Z,102525.25
2022-08-05T19:33:47.933Z,102537.72
2022-08-05T19:36:23.075Z,102536.44
2022-08-05T19:38:49.607Z,102539.09
2022-08-05T19:41:16.109Z,102534.97
2022-08-05T19:44:05.653Z,102536.72
2022-08-05T19:46:30.959Z,102543.25
2022-08-05T19:49:03.141Z,102549.00
2022-08-05T19:52:09.411Z,102553.09
2022-08-05T19:54:25.536Z,102564.50
2022-08-05T19:56:55.223Z,102554.81
2022-08-05T19:59:59.332Z,102562.00
2022-08-05T20:02:08.461Z,102568.88
2022-08-05T20:04:37.236Z,102559.50
2022-08-05T20:07:03.938Z,102569.91
2022-08-05T20:09:54.985Z,102571.31
2022-08-05T20:12:26.476Z,102580.88
2022-08-05T20:14:53.319Z,102582.78
2022-08-05T20:17:23.492Z,102583.00
2022-08-05T20:19:57.012Z,102576.78
2022-08-05T20:22:26.746Z,102589.88
2022-08-05T20:24:54.529Z,102585.59
2022-08-05T20:27:26.932Z,102594.97
2022-08-05T20:29:58.531Z,102590.63
2022-08-05T20:32:26.580Z,102595.97
2022-08-05T20:34:53.622Z,102595.91
2022-08-05T20:38:04.873Z,102599.19
2022-08-05T20:40:07.911Z,102600.59
2022-08-05T20:42:34.716Z,102605.69
2022-08-05T20:45:02.101Z,102605.59
2022-08-05T20:47:31.119Z,102608.81
2022-08-05T20:49:59.434Z,102611.94
2022-08-05T20:52:26.383Z,102616.41
2022-08-05T20:55:54.283Z,102624.25
2022-08-05T20:57:43.319Z,102631.59
2022-08-05T21:00:41.432Z,102620.91
2022-08-05T21:03:06.213Z,102624.53
2022-08-05T21:05:53.843Z,102622.25
2022-08-05T21:08:32.904Z,102625.19
2022-08-05T21:11:15.259Z,102629.88
2022-08-05T21:13:59.913Z,102637.69
2022-08-05T21:16:29.326Z,102625.31
2022-08-05T21:18:56.811Z,102627.13
2022-08-05T21:21:26.746Z,102624.19
2022-08-05T21:24:07.315Z,102624.34
2022-08-05T21:26:33.938Z,102628.00
2022-08-05T21:29:03.736Z,102632.25
2022-08-05T21:31:41.541Z,102634.44
2022-08-05T21:34:10.606Z,102632.16
2022-08-05T21:36:37.960Z,102631.88
2022-08-05T21:39:04.848Z,102632.88
2022-08-05T21:41:33.786Z,102638.59
2022-08-05T21:44:01.537Z,102635.00
2022-08-05T21:46:30.980Z,102646.97
2022-08-05T21:48:59.986Z,102644.06
2022-08-05T21:52:16.620Z,102648.28
2022-08-05T21:54:13.191Z,102650.84
2022-08-05T21:56:44.506Z,102649.53
2022-08-05T21:59:22.604Z,102648.25
2022-08-05T22:01:51.689Z,102650.44
2022-08-05T22:04:21.149Z,102650.50
2022-08-05T22:06:52.367Z,102650.56
2022-08-05T22:09:21.058Z,102653.94
2022-08-05T22:11:48.945Z,102649.81
2022-08-05T22:14:37.354Z,102653.50
2022-08-05T22:17:06.582Z,102662.44
2022-08-05T22:20:00.302Z,102657.66
2022-08-05T22:22:28.263Z,102658.84
2022-08-05T22:25:23.981Z,102661.84
2022-08-05T22:28:10.405Z,102671.19
2022-08-05T22:30:55.612Z,102664.53
2022-08-05T22:33:57.106Z,102673.03
2022-08-05T22:36:14.209Z,102670.25
2022-08-05T22:38:42.539Z,102673.25
2022-08-05T22:41:10.203Z,102674.59
2022-08-05T22:43:38.081Z,102679.28
2022-08-05T22:46:13.670Z,102675.13
2022-08-05T22:48:50.534Z,102680.16
2022-08-05T22:51:22.729Z,102681.50
2022-08-05T22:54:05.102Z,102681.03
2022-08-05T22:56:31.900Z,102678.72
2022-08-05T22:59:00.022Z,102683.53
2022-08-05T23:02:05.227Z,102687.19
2022-08-05T23:04:18.102Z,102685.88
2022-08-05T23:06:44.595Z,102688.91
2022-08-05T23:09:24.634Z,102684.09
2022-08-05T23:11:54.750Z,102692.38
2022-08-05T23:14:22.544Z,102694.56
2022-08-05T23:17:08.138Z,102697.09
2022-08-05T23:19:46.575Z,102697.44
2022-08-05T23:22:24.195Z,102693.47
2022-08-05T23:24:54.789Z,102703.09
2022-08-05T23:27:22.717Z,102695.81
2022-08-05T23:29:50.807Z,102705.78
2022-08-05T23:32:17.499Z,102712.75
2022-08-05T23:34:49.855Z,102709.44
2022-08-05T23:37:17.677Z,102709.75
2022-08-05T23:39:53.340Z,102711.75
2022-08-05T23:42:23.550Z,102713.56
2022-08-05T23:44:56.638Z,102714.06
2022-08-05T23:47:25.051Z,102712.44
2022-08-05T23:49:55.583Z,102720.38
2022-08-05T23:52:26.491Z,102722.03
2022-08-05T23:54:56.042Z,102723.03
2022-08-05T23:57:22.572Z,102726.84
